sensor_id;sensor_type;location;lat;lon;timestamp;P1;durP1;ratioP1;P2;durP2;ratioP2
55063;SDS011;40963;52.168;21.296;2023-09-07T00:00:15;12.10;;;6.22;;
55063;SDS011;40963;52.168;21.296;2023-09-07T00:02:41;14.88;;;6.70;;
55063;SDS011;40963;52.168;21.296;2023-09-07T00:05:07;12.55;;;6.43;;
55063;SDS011;40963;52.168;21.296;2023-09-07T00:07:33;16.58;;;6.43;;
55063;SDS011;40963;52.168;21.296;2023-09-07T00:09:59;12.70;;;6.95;;
55063;SDS011;40963;52.168;21.296;2023-09-07T00:12:25;19.30;;;6.45;;
55063;SDS011;40963;52.168;21.296;2023-09-07T00:14:52;10.93;;;6.63;;
55063;SDS011;40963;52.168;21.296;2023-09-07T00:17:22;11.52;;;6.53;;
55063;SDS011;40963;52.168;21.296;2023-09-07T00:19:47;13.45;;;6.00;;
55063;SDS011;40963;52.168;21.296;2023-09-07T00:22:16;12.68;;;6.53;;
55063;SDS011;40963;52.168;21.296;2023-09-07T00:24:42;16.85;;;7.10;;
55063;SDS011;40963;52.168;21.296;2023-09-07T00:27:08;15.10;;;7.10;;
55063;SDS011;40963;52.168;21.296;2023-09-07T00:29:36;11.85;;;6.53;;
55063;SDS011;40963;52.168;21.296;2023-09-07T00:32:02;12.15;;;6.82;;
55063;SDS011;40963;52.168;21.296;2023-09-07T00:34:28;12.55;;;6.47;;
55063;SDS011;40963;52.168;21.296;2023-09-07T00:36:54;13.65;;;7.53;;
55063;SDS011;40963;52.168;21.296;2023-09-07T00:39:19;10.90;;;7.10;;
55063;SDS011;40963;52.168;21.296;2023-09-07T00:41:45;9.77;;;6.68;;
55063;SDS011;40963;52.168;21.296;2023-09-07T00:44:10;13.48;;;6.45;;
55063;SDS011;40963;52.168;21.296;2023-09-07T00:46:36;12.65;;;6.78;;
55063;SDS011;40963;52.168;21.296;2023-09-07T00:49:02;11.85;;;6.30;;
55063;SDS011;40963;52.168;21.296;2023-09-07T00:51:29;12.57;;;6.65;;
55063;SDS011;40963;52.168;21.296;2023-09-07T00:53:55;16.85;;;6.95;;
55063;SDS011;40963;52.168;21.296;2023-09-07T00:56:21;12.32;;;6.32;;
55063;SDS011;40963;52.168;21.296;2023-09-07T00:58:47;18.30;;;7.45;;
55063;SDS011;40963;52.168;21.296;2023-09-07T01:01:13;12.23;;;6.50;;
55063;SDS011;40963;52.168;21.296;2023-09-07T01:03:38;13.95;;;7.22;;
55063;SDS011;40963;52.168;21.296;2023-09-07T01:06:07;10.50;;;6.57;;
55063;SDS011;40963;52.168;21.296;2023-09-07T01:08:55;17.23;;;7.80;;
55063;SDS011;40963;52.168;21.296;2023-09-07T01:11:25;12.40;;;7.47;;
55063;SDS011;40963;52.168;21.296;2023-09-07T01:13:51;13.75;;;7.57;;
55063;SDS011;40963;52.168;21.296;2023-09-07T01:16:19;11.55;;;6.78;;
55063;SDS011;40963;52.168;21.296;2023-09-07T01:18:45;12.45;;;7.55;;
55063;SDS011;40963;52.168;21.296;2023-09-07T01:21:12;13.25;;;6.60;;
55063;SDS011;40963;52.168;21.296;2023-09-07T01:23:40;12.27;;;7.20;;
55063;SDS011;40963;52.168;21.296;2023-09-07T01:26:07;14.90;;;7.03;;
55063;SDS011;40963;52.168;21.296;2023-09-07T01:28:36;14.88;;;7.72;;
55063;SDS011;40963;52.168;21.296;2023-09-07T01:31:02;15.25;;;7.55;;
55063;SDS011;40963;52.168;21.296;2023-09-07T01:33:28;13.98;;;7.18;;
55063;SDS011;40963;52.168;21.296;2023-09-07T01:35:54;23.90;;;8.00;;
55063;SDS011;40963;52.168;21.296;2023-09-07T01:38:19;18.17;;;8.10;;
55063;SDS011;40963;52.168;21.296;2023-09-07T01:40:45;13.27;;;8.00;;
55063;SDS011;40963;52.168;21.296;2023-09-07T01:43:11;15.60;;;7.30;;
55063;SDS011;40963;52.168;21.296;2023-09-07T01:45:37;12.18;;;6.72;;
55063;SDS011;40963;52.168;21.296;2023-09-07T01:48:05;12.40;;;7.60;;
55063;SDS011;40963;52.168;21.296;2023-09-07T01:50:33;13.57;;;7.32;;
55063;SDS011;40963;52.168;21.296;2023-09-07T01:52:59;19.27;;;7.78;;
55063;SDS011;40963;52.168;21.296;2023-09-07T01:55:26;17.50;;;7.45;;
55063;SDS011;40963;52.168;21.296;2023-09-07T01:57:52;15.40;;;7.30;;
55063;SDS011;40963;52.168;21.296;2023-09-07T02:00:17;14.02;;;6.88;;
55063;SDS011;40963;52.168;21.296;2023-09-07T02:02:43;15.05;;;6.93;;
55063;SDS011;40963;52.168;21.296;2023-09-07T02:05:09;12.43;;;7.22;;
55063;SDS011;40963;52.168;21.296;2023-09-07T02:07:34;10.85;;;6.97;;
55063;SDS011;40963;52.168;21.296;2023-09-07T02:10:01;14.32;;;7.50;;
55063;SDS011;40963;52.168;21.296;2023-09-07T02:12:28;10.48;;;6.72;;
55063;SDS011;40963;52.168;21.296;2023-09-07T02:14:54;14.68;;;7.53;;
55063;SDS011;40963;52.168;21.296;2023-09-07T02:17:20;14.73;;;6.72;;
55063;SDS011;40963;52.168;21.296;2023-09-07T02:19:46;16.23;;;7.25;;
55063;SDS011;40963;52.168;21.296;2023-09-07T02:22:11;12.85;;;6.63;;
55063;SDS011;40963;52.168;21.296;2023-09-07T02:24:37;13.95;;;7.13;;
55063;SDS011;40963;52.168;21.296;2023-09-07T02:27:02;12.68;;;7.07;;
55063;SDS011;40963;52.168;21.296;2023-09-07T02:29:28;13.00;;;7.47;;
55063;SDS011;40963;52.168;21.296;2023-09-07T02:31:54;13.77;;;6.93;;
55063;SDS011;40963;52.168;21.296;2023-09-07T02:34:19;12.88;;;7.30;;
55063;SDS011;40963;52.168;21.296;2023-09-07T02:36:45;11.35;;;6.40;;
55063;SDS011;40963;52.168;21.296;2023-09-07T02:39:11;12.93;;;7.20;;
55063;SDS011;40963;52.168;21.296;2023-09-07T02:41:37;15.10;;;7.15;;
55063;SDS011;40963;52.168;21.296;2023-09-07T02:44:03;12.15;;;6.88;;
55063;SDS011;40963;52.168;21.296;2023-09-07T02:46:29;11.43;;;6.70;;
55063;SDS011;40963;52.168;21.296;2023-09-07T02:48:55;12.95;;;6.88;;
55063;SDS011;40963;52.168;21.296;2023-09-07T02:51:24;13.52;;;6.68;;
55063;SDS011;40963;52.168;21.296;2023-09-07T02:53:50;17.35;;;7.25;;
55063;SDS011;40963;52.168;21.296;2023-09-07T02:56:16;12.02;;;7.50;;
55063;SDS011;40963;52.168;21.296;2023-09-07T02:58:42;19.67;;;6.65;;
55063;SDS011;40963;52.168;21.296;2023-09-07T03:01:07;12.57;;;6.85;;
55063;SDS011;40963;52.168;21.296;2023-09-07T03:03:36;12.13;;;6.57;;
55063;SDS011;40963;52.168;21.296;2023-09-07T03:06:09;14.10;;;6.97;;
55063;SDS011;40963;52.168;21.296;2023-09-07T03:08:35;11.52;;;6.38;;
55063;SDS011;40963;52.168;21.296;2023-09-07T03:11:04;12.73;;;7.10;;
55063;SDS011;40963;52.168;21.296;2023-09-07T03:13:30;13.43;;;6.78;;
55063;SDS011;40963;52.168;21.296;2023-09-07T03:15:56;9.38;;;5.90;;
55063;SDS011;40963;52.168;21.296;2023-09-07T03:18:22;11.57;;;6.85;;
55063;SDS011;40963;52.168;21.296;2023-09-07T03:20:48;11.98;;;6.53;;
55063;SDS011;40963;52.168;21.296;2023-09-07T03:23:14;14.27;;;6.90;;
55063;SDS011;40963;52.168;21.296;2023-09-07T03:25:40;14.80;;;7.20;;
55063;SDS011;40963;52.168;21.296;2023-09-07T03:28:06;13.15;;;6.80;;
55063;SDS011;40963;52.168;21.296;2023-09-07T03:30:32;14.45;;;6.15;;
55063;SDS011;40963;52.168;21.296;2023-09-07T03:32:58;16.48;;;6.55;;
55063;SDS011;40963;52.168;21.296;2023-09-07T03:35:24;10.70;;;6.15;;
55063;SDS011;40963;52.168;21.296;2023-09-07T03:37:49;15.25;;;6.28;;
55063;SDS011;40963;52.168;21.296;2023-09-07T03:40:15;12.57;;;7.38;;
55063;SDS011;40963;52.168;21.296;2023-09-07T03:42:41;24.92;;;7.70;;
55063;SDS011;40963;52.168;21.296;2023-09-07T03:45:08;14.50;;;6.70;;
55063;SDS011;40963;52.168;21.296;2023-09-07T03:47:34;13.05;;;6.55;;
55063;SDS011;40963;52.168;21.296;2023-09-07T03:50:00;20.23;;;6.65;;
55063;SDS011;40963;52.168;21.296;2023-09-07T03:52:26;15.18;;;7.20;;
55063;SDS011;40963;52.168;21.296;2023-09-07T03:54:55;14.38;;;6.00;;
55063;SDS011;40963;52.168;21.296;2023-09-07T03:57:21;11.18;;;6.50;;
55063;SDS011;40963;52.168;21.296;2023-09-07T03:59:47;16.13;;;6.45;;
55063;SDS011;40963;52.168;21.296;2023-09-07T04:02:13;10.23;;;6.53;;
55063;SDS011;40963;52.168;21.296;2023-09-07T04:04:39;12.43;;;6.45;;
55063;SDS011;40963;52.168;21.296;2023-09-07T04:07:05;12.10;;;6.57;;
55063;SDS011;40963;52.168;21.296;2023-09-07T04:09:31;7.75;;;5.90;;
55063;SDS011;40963;52.168;21.296;2023-09-07T04:11:56;14.13;;;6.70;;
55063;SDS011;40963;52.168;21.296;2023-09-07T04:14:22;14.93;;;6.72;;
55063;SDS011;40963;52.168;21.296;2023-09-07T04:16:48;10.23;;;6.28;;
55063;SDS011;40963;52.168;21.296;2023-09-07T04:19:13;10.32;;;5.90;;
55063;SDS011;40963;52.168;21.296;2023-09-07T04:21:39;9.45;;;6.47;;
55063;SDS011;40963;52.168;21.296;2023-09-07T04:24:05;10.13;;;6.10;;
55063;SDS011;40963;52.168;21.296;2023-09-07T04:26:30;9.07;;;5.90;;
55063;SDS011;40963;52.168;21.296;2023-09-07T04:28:56;10.93;;;6.13;;
55063;SDS011;40963;52.168;21.296;2023-09-07T04:31:21;13.93;;;5.55;;
55063;SDS011;40963;52.168;21.296;2023-09-07T04:33:49;10.20;;;6.63;;
55063;SDS011;40963;52.168;21.296;2023-09-07T04:36:15;9.98;;;6.40;;
55063;SDS011;40963;52.168;21.296;2023-09-07T04:38:40;11.85;;;6.53;;
55063;SDS011;40963;52.168;21.296;2023-09-07T04:41:10;8.95;;;5.82;;
55063;SDS011;40963;52.168;21.296;2023-09-07T04:43:37;10.57;;;6.40;;
55063;SDS011;40963;52.168;21.296;2023-09-07T04:46:05;9.55;;;6.43;;
55063;SDS011;40963;52.168;21.296;2023-09-07T04:48:31;11.45;;;6.15;;
55063;SDS011;40963;52.168;21.296;2023-09-07T04:53:26;11.65;;;6.07;;
55063;SDS011;40963;52.168;21.296;2023-09-07T04:55:53;10.75;;;6.15;;
55063;SDS011;40963;52.168;21.296;2023-09-07T04:58:19;11.65;;;5.43;;
55063;SDS011;40963;52.168;21.296;2023-09-07T05:00:45;13.13;;;6.05;;
55063;SDS011;40963;52.168;21.296;2023-09-07T05:03:10;11.98;;;6.15;;
55063;SDS011;40963;52.168;21.296;2023-09-07T05:05:37;8.25;;;6.07;;
55063;SDS011;40963;52.168;21.296;2023-09-07T05:08:03;8.85;;;6.05;;
55063;SDS011;40963;52.168;21.296;2023-09-07T05:10:32;9.77;;;5.82;;
55063;SDS011;40963;52.168;21.296;2023-09-07T05:12:58;14.65;;;6.72;;
55063;SDS011;40963;52.168;21.296;2023-09-07T05:15:24;11.80;;;6.15;;
55063;SDS011;40963;52.168;21.296;2023-09-07T05:17:49;19.00;;;6.82;;
55063;SDS011;40963;52.168;21.296;2023-09-07T05:20:15;8.82;;;5.70;;
55063;SDS011;40963;52.168;21.296;2023-09-07T05:22:41;9.10;;;5.95;;
55063;SDS011;40963;52.168;21.296;2023-09-07T05:25:06;9.98;;;5.90;;
55063;SDS011;40963;52.168;21.296;2023-09-07T05:27:36;11.10;;;5.95;;
55063;SDS011;40963;52.168;21.296;2023-09-07T05:30:02;15.25;;;6.50;;
55063;SDS011;40963;52.168;21.296;2023-09-07T05:32:28;11.75;;;5.97;;
55063;SDS011;40963;52.168;21.296;2023-09-07T05:34:53;11.38;;;6.25;;
55063;SDS011;40963;52.168;21.296;2023-09-07T05:37:19;10.00;;;6.38;;
55063;SDS011;40963;52.168;21.296;2023-09-07T05:39:44;9.18;;;6.35;;
55063;SDS011;40963;52.168;21.296;2023-09-07T05:42:10;12.18;;;6.93;;
55063;SDS011;40963;52.168;21.296;2023-09-07T05:44:37;11.63;;;6.57;;
55063;SDS011;40963;52.168;21.296;2023-09-07T05:47:03;14.60;;;7.00;;
55063;SDS011;40963;52.168;21.296;2023-09-07T05:49:29;13.07;;;7.72;;
55063;SDS011;40963;52.168;21.296;2023-09-07T05:51:55;15.98;;;7.25;;
55063;SDS011;40963;52.168;21.296;2023-09-07T05:54:21;15.00;;;8.38;;
55063;SDS011;40963;52.168;21.296;2023-09-07T05:56:47;16.95;;;9.38;;
55063;SDS011;40963;52.168;21.296;2023-09-07T05:59:12;15.13;;;8.18;;
55063;SDS011;40963;52.168;21.296;2023-09-07T06:01:38;14.63;;;8.60;;
55063;SDS011;40963;52.168;21.296;2023-09-07T06:04:04;18.67;;;10.00;;
55063;SDS011;40963;52.168;21.296;2023-09-07T06:06:31;20.95;;;10.90;;
55063;SDS011;40963;52.168;21.296;2023-09-07T06:08:56;17.58;;;9.57;;
55063;SDS011;40963;52.168;21.296;2023-09-07T06:11:24;27.52;;;10.73;;
55063;SDS011;40963;52.168;21.296;2023-09-07T06:13:50;22.90;;;12.25;;
55063;SDS011;40963;52.168;21.296;2023-09-07T06:16:15;19.58;;;12.10;;
55063;SDS011;40963;52.168;21.296;2023-09-07T06:18:41;26.13;;;11.23;;
55063;SDS011;40963;52.168;21.296;2023-09-07T06:21:07;21.13;;;11.73;;
55063;SDS011;40963;52.168;21.296;2023-09-07T06:23:32;19.60;;;11.00;;
55063;SDS011;40963;52.168;21.296;2023-09-07T06:25:59;18.15;;;11.40;;
55063;SDS011;40963;52.168;21.296;2023-09-07T06:28:25;19.70;;;11.05;;
55063;SDS011;40963;52.168;21.296;2023-09-07T06:30:51;17.67;;;9.63;;
55063;SDS011;40963;52.168;21.296;2023-09-07T06:33:17;24.60;;;11.30;;
55063;SDS011;40963;52.168;21.296;2023-09-07T06:35:43;18.50;;;9.98;;
55063;SDS011;40963;52.168;21.296;2023-09-07T06:38:08;19.67;;;9.25;;
55063;SDS011;40963;52.168;21.296;2023-09-07T06:40:34;14.95;;;9.25;;
55063;SDS011;40963;52.168;21.296;2023-09-07T06:42:59;16.83;;;9.50;;
55063;SDS011;40963;52.168;21.296;2023-09-07T06:45:25;17.13;;;9.05;;
55063;SDS011;40963;52.168;21.296;2023-09-07T06:47:52;15.05;;;7.95;;
55063;SDS011;40963;52.168;21.296;2023-09-07T06:50:17;13.98;;;8.05;;
55063;SDS011;40963;52.168;21.296;2023-09-07T06:52:43;12.48;;;8.30;;
55063;SDS011;40963;52.168;21.296;2023-09-07T06:55:09;16.15;;;8.15;;
55063;SDS011;40963;52.168;21.296;2023-09-07T06:57:34;14.30;;;8.10;;
55063;SDS011;40963;52.168;21.296;2023-09-07T07:00:00;15.63;;;8.05;;
55063;SDS011;40963;52.168;21.296;2023-09-07T07:02:30;14.18;;;7.53;;
55063;SDS011;40963;52.168;21.296;2023-09-07T07:04:56;11.07;;;7.60;;
55063;SDS011;40963;52.168;21.296;2023-09-07T07:07:21;11.80;;;7.65;;
55063;SDS011;40963;52.168;21.296;2023-09-07T07:09:47;18.88;;;7.20;;
55063;SDS011;40963;52.168;21.296;2023-09-07T07:12:12;10.90;;;6.55;;
55063;SDS011;40963;52.168;21.296;2023-09-07T07:14:38;11.82;;;6.97;;
55063;SDS011;40963;52.168;21.296;2023-09-07T07:17:04;13.57;;;6.53;;
55063;SDS011;40963;52.168;21.296;2023-09-07T07:19:30;11.30;;;6.03;;
55063;SDS011;40963;52.168;21.296;2023-09-07T07:21:56;17.48;;;6.25;;
55063;SDS011;40963;52.168;21.296;2023-09-07T07:24:21;8.43;;;5.78;;
55063;SDS011;40963;52.168;21.296;2023-09-07T07:26:47;9.90;;;5.85;;
55063;SDS011;40963;52.168;21.296;2023-09-07T07:29:13;18.85;;;6.63;;
55063;SDS011;40963;52.168;21.296;2023-09-07T07:31:38;27.05;;;6.72;;
55063;SDS011;40963;52.168;21.296;2023-09-07T07:34:04;8.55;;;6.00;;
55063;SDS011;40963;52.168;21.296;2023-09-07T07:36:30;10.30;;;6.13;;
55063;SDS011;40963;52.168;21.296;2023-09-07T07:38:56;15.90;;;6.20;;
55063;SDS011;40963;52.168;21.296;2023-09-07T07:41:21;9.02;;;5.80;;
55063;SDS011;40963;52.168;21.296;2023-09-07T07:43:47;8.55;;;5.60;;
55063;SDS011;40963;52.168;21.296;2023-09-07T07:46:12;7.68;;;4.90;;
55063;SDS011;40963;52.168;21.296;2023-09-07T07:48:40;6.60;;;5.32;;
55063;SDS011;40963;52.168;21.296;2023-09-07T07:51:07;9.45;;;5.47;;
55063;SDS011;40963;52.168;21.296;2023-09-07T07:53:34;7.22;;;4.60;;
55063;SDS011;40963;52.168;21.296;2023-09-07T07:55:59;9.20;;;5.20;;
55063;SDS011;40963;52.168;21.296;2023-09-07T07:58:25;8.38;;;5.07;;
55063;SDS011;40963;52.168;21.296;2023-09-07T08:00:51;7.90;;;4.97;;
55063;SDS011;40963;52.168;21.296;2023-09-07T08:03:17;12.23;;;5.57;;
55063;SDS011;40963;52.168;21.296;2023-09-07T08:05:42;10.90;;;4.60;;
55063;SDS011;40963;52.168;21.296;2023-09-07T08:08:08;10.30;;;5.43;;
55063;SDS011;40963;52.168;21.296;2023-09-07T08:10:36;14.07;;;5.32;;
55063;SDS011;40963;52.168;21.296;2023-09-07T08:13:02;9.60;;;4.55;;
55063;SDS011;40963;52.168;21.296;2023-09-07T08:15:28;6.47;;;4.72;;
55063;SDS011;40963;52.168;21.296;2023-09-07T08:17:54;11.50;;;5.13;;
55063;SDS011;40963;52.168;21.296;2023-09-07T08:20:20;8.88;;;4.70;;
55063;SDS011;40963;52.168;21.296;2023-09-07T08:22:46;7.93;;;4.53;;
55063;SDS011;40963;52.168;21.296;2023-09-07T08:25:12;32.97;;;5.55;;
55063;SDS011;40963;52.168;21.296;2023-09-07T08:27:38;10.40;;;5.20;;
55063;SDS011;40963;52.168;21.296;2023-09-07T08:30:11;23.15;;;6.18;;
55063;SDS011;40963;52.168;21.296;2023-09-07T08:32:38;7.30;;;5.65;;
55063;SDS011;40963;52.168;21.296;2023-09-07T08:35:04;8.88;;;5.20;;
55063;SDS011;40963;52.168;21.296;2023-09-07T08:37:32;11.45;;;5.50;;
55063;SDS011;40963;52.168;21.296;2023-09-07T08:39:58;11.90;;;6.28;;
55063;SDS011;40963;52.168;21.296;2023-09-07T08:42:24;9.20;;;5.72;;
55063;SDS011;40963;52.168;21.296;2023-09-07T08:44:50;14.75;;;5.95;;
55063;SDS011;40963;52.168;21.296;2023-09-07T08:47:19;8.45;;;5.53;;
55063;SDS011;40963;52.168;21.296;2023-09-07T08:49:46;8.57;;;5.60;;
55063;SDS011;40963;52.168;21.296;2023-09-07T08:52:12;9.00;;;5.75;;
55063;SDS011;40963;52.168;21.296;2023-09-07T08:54:41;16.88;;;5.30;;
55063;SDS011;40963;52.168;21.296;2023-09-07T08:57:08;8.38;;;5.35;;
55063;SDS011;40963;52.168;21.296;2023-09-07T08:59:36;12.27;;;4.97;;
55063;SDS011;40963;52.168;21.296;2023-09-07T09:02:01;8.15;;;5.43;;
55063;SDS011;40963;52.168;21.296;2023-09-07T09:04:29;11.23;;;5.60;;
55063;SDS011;40963;52.168;21.296;2023-09-07T09:06:55;9.43;;;5.20;;
55063;SDS011;40963;52.168;21.296;2023-09-07T09:09:22;6.93;;;4.80;;
55063;SDS011;40963;52.168;21.296;2023-09-07T09:11:49;6.00;;;4.60;;
55063;SDS011;40963;52.168;21.296;2023-09-07T09:14:18;9.13;;;5.03;;
55063;SDS011;40963;52.168;21.296;2023-09-07T09:16:50;4.85;;;4.35;;
55063;SDS011;40963;52.168;21.296;2023-09-07T09:19:16;7.25;;;4.55;;
55063;SDS011;40963;52.168;21.296;2023-09-07T09:21:44;10.82;;;5.00;;
55063;SDS011;40963;52.168;21.296;2023-09-07T09:24:10;7.70;;;4.80;;
55063;SDS011;40963;52.168;21.296;2023-09-07T09:26:37;8.70;;;4.75;;
55063;SDS011;40963;52.168;21.296;2023-09-07T09:29:02;5.53;;;4.28;;
55063;SDS011;40963;52.168;21.296;2023-09-07T09:31:29;5.53;;;4.28;;
55063;SDS011;40963;52.168;21.296;2023-09-07T09:33:55;4.93;;;4.40;;
55063;SDS011;40963;52.168;21.296;2023-09-07T09:36:21;14.30;;;4.38;;
55063;SDS011;40963;52.168;21.296;2023-09-07T09:38:48;8.68;;;4.28;;
55063;SDS011;40963;52.168;21.296;2023-09-07T09:41:15;6.47;;;4.40;;
55063;SDS011;40963;52.168;21.296;2023-09-07T09:43:42;6.80;;;3.78;;
55063;SDS011;40963;52.168;21.296;2023-09-07T09:46:09;5.22;;;4.18;;
55063;SDS011;40963;52.168;21.296;2023-09-07T09:48:37;4.97;;;4.13;;
55063;SDS011;40963;52.168;21.296;2023-09-07T09:51:03;5.80;;;4.28;;
55063;SDS011;40963;52.168;21.296;2023-09-07T09:53:29;7.38;;;3.88;;
55063;SDS011;40963;52.168;21.296;2023-09-07T09:55:55;6.45;;;4.75;;
55063;SDS011;40963;52.168;21.296;2023-09-07T09:58:21;4.80;;;3.95;;
55063;SDS011;40963;52.168;21.296;2023-09-07T10:00:48;5.63;;;4.07;;
55063;SDS011;40963;52.168;21.296;2023-09-07T10:05:52;9.32;;;4.40;;
55063;SDS011;40963;52.168;21.296;2023-09-07T10:08:18;10.40;;;4.20;;
55063;SDS011;40963;52.168;21.296;2023-09-07T10:10:48;7.97;;;2.90;;
55063;SDS011;40963;52.168;21.296;2023-09-07T10:13:28;5.53;;;3.50;;
55063;SDS011;40963;52.168;21.296;2023-09-07T10:16:07;4.93;;;3.80;;
55063;SDS011;40963;52.168;21.296;2023-09-07T10:18:34;3.63;;;3.30;;
55063;SDS011;40963;52.168;21.296;2023-09-07T10:21:01;4.68;;;3.45;;
55063;SDS011;40963;52.168;21.296;2023-09-07T10:23:40;4.88;;;3.35;;
55063;SDS011;40963;52.168;21.296;2023-09-07T10:26:11;3.50;;;3.17;;
55063;SDS011;40963;52.168;21.296;2023-09-07T10:28:37;4.10;;;3.00;;
55063;SDS011;40963;52.168;21.296;2023-09-07T10:31:07;3.60;;;3.00;;
55063;SDS011;40963;52.168;21.296;2023-09-07T10:33:40;3.28;;;2.88;;
55063;SDS011;40963;52.168;21.296;2023-09-07T10:36:06;7.90;;;3.30;;
55063;SDS011;40963;52.168;21.296;2023-09-07T10:38:32;3.63;;;2.75;;
55063;SDS011;40963;52.168;21.296;2023-09-07T10:40:59;3.65;;;2.65;;
55063;SDS011;40963;52.168;21.296;2023-09-07T10:43:26;4.03;;;3.35;;
55063;SDS011;40963;52.168;21.296;2023-09-07T10:45:55;4.32;;;3.10;;
55063;SDS011;40963;52.168;21.296;2023-09-07T10:48:22;6.38;;;3.42;;
55063;SDS011;40963;52.168;21.296;2023-09-07T10:50:51;3.15;;;2.85;;
55063;SDS011;40963;52.168;21.296;2023-09-07T10:53:27;3.55;;;2.83;;
55063;SDS011;40963;52.168;21.296;2023-09-07T10:55:57;3.80;;;3.35;;
55063;SDS011;40963;52.168;21.296;2023-09-07T10:58:33;3.53;;;3.13;;
55063;SDS011;40963;52.168;21.296;2023-09-07T11:01:00;3.33;;;3.03;;
55063;SDS011;40963;52.168;21.296;2023-09-07T11:03:27;3.63;;;2.95;;
55063;SDS011;40963;52.168;21.296;2023-09-07T11:05:53;4.28;;;2.90;;
55063;SDS011;40963;52.168;21.296;2023-09-07T11:08:41;3.38;;;2.85;;
55063;SDS011;40963;52.168;21.296;2023-09-07T11:11:07;3.83;;;3.10;;
55063;SDS011;40963;52.168;21.296;2023-09-07T11:13:34;6.63;;;3.35;;
55063;SDS011;40963;52.168;21.296;2023-09-07T11:16:00;4.72;;;2.40;;
55063;SDS011;40963;52.168;21.296;2023-09-07T11:18:25;4.47;;;2.95;;
55063;SDS011;40963;52.168;21.296;2023-09-07T11:20:52;2.80;;;2.40;;
55063;SDS011;40963;52.168;21.296;2023-09-07T11:23:19;15.20;;;3.50;;
55063;SDS011;40963;52.168;21.296;2023-09-07T11:25:46;3.08;;;2.78;;
55063;SDS011;40963;52.168;21.296;2023-09-07T11:28:14;3.65;;;2.95;;
55063;SDS011;40963;52.168;21.296;2023-09-07T11:30:51;2.90;;;2.67;;
55063;SDS011;40963;52.168;21.296;2023-09-07T11:33:18;4.53;;;3.10;;
55063;SDS011;40963;52.168;21.296;2023-09-07T11:35:46;4.47;;;2.83;;
55063;SDS011;40963;52.168;21.296;2023-09-07T11:38:13;3.35;;;2.90;;
55063;SDS011;40963;52.168;21.296;2023-09-07T11:40:40;3.40;;;2.50;;
55063;SDS011;40963;52.168;21.296;2023-09-07T11:43:13;2.90;;;2.70;;
55063;SDS011;40963;52.168;21.296;2023-09-07T11:45:43;5.72;;;2.50;;
55063;SDS011;40963;52.168;21.296;2023-09-07T11:48:09;2.85;;;2.65;;
55063;SDS011;40963;52.168;21.296;2023-09-07T11:50:35;3.85;;;3.10;;
55063;SDS011;40963;52.168;21.296;2023-09-07T11:53:01;2.75;;;2.55;;
55063;SDS011;40963;52.168;21.296;2023-09-07T11:55:27;2.58;;;2.38;;
55063;SDS011;40963;52.168;21.296;2023-09-07T11:57:52;3.85;;;2.50;;
55063;SDS011;40963;52.168;21.296;2023-09-07T12:00:18;2.45;;;2.25;;
55063;SDS011;40963;52.168;21.296;2023-09-07T12:02:44;2.30;;;2.10;;
55063;SDS011;40963;52.168;21.296;2023-09-07T12:05:10;3.10;;;2.17;;
55063;SDS011;40963;52.168;21.296;2023-09-07T12:07:39;4.05;;;2.55;;
55063;SDS011;40963;52.168;21.296;2023-09-07T12:10:06;2.38;;;2.08;;
55063;SDS011;40963;52.168;21.296;2023-09-07T12:12:36;2.75;;;2.20;;
55063;SDS011;40963;52.168;21.296;2023-09-07T12:15:01;4.10;;;2.25;;
55063;SDS011;40963;52.168;21.296;2023-09-07T12:17:29;2.88;;;2.38;;
55063;SDS011;40963;52.168;21.296;2023-09-07T12:19:58;2.40;;;2.20;;
55063;SDS011;40963;52.168;21.296;2023-09-07T12:22:23;2.30;;;2.10;;
55063;SDS011;40963;52.168;21.296;2023-09-07T12:24:49;4.22;;;2.42;;
55063;SDS011;40963;52.168;21.296;2023-09-07T12:27:15;2.67;;;2.47;;
55063;SDS011;40963;52.168;21.296;2023-09-07T12:29:41;2.40;;;2.05;;
55063;SDS011;40963;52.168;21.296;2023-09-07T12:32:07;2.95;;;2.35;;
55063;SDS011;40963;52.168;21.296;2023-09-07T12:34:32;3.92;;;2.55;;
55063;SDS011;40963;52.168;21.296;2023-09-07T12:36:58;3.20;;;2.55;;
55063;SDS011;40963;52.168;21.296;2023-09-07T12:39:23;3.60;;;2.28;;
55063;SDS011;40963;52.168;21.296;2023-09-07T12:41:49;3.45;;;2.30;;
55063;SDS011;40963;52.168;21.296;2023-09-07T12:44:15;16.90;;;2.55;;
55063;SDS011;40963;52.168;21.296;2023-09-07T12:46:41;3.78;;;2.33;;
55063;SDS011;40963;52.168;21.296;2023-09-07T12:49:07;2.70;;;2.47;;
55063;SDS011;40963;52.168;21.296;2023-09-07T12:51:32;4.90;;;2.22;;
55063;SDS011;40963;52.168;21.296;2023-09-07T12:53:58;3.08;;;2.33;;
55063;SDS011;40963;52.168;21.296;2023-09-07T12:56:23;6.20;;;2.65;;
55063;SDS011;40963;52.168;21.296;2023-09-07T12:58:49;2.63;;;2.40;;
55063;SDS011;40963;52.168;21.296;2023-09-07T13:01:17;3.83;;;2.30;;
55063;SDS011;40963;52.168;21.296;2023-09-07T13:03:43;5.15;;;2.65;;
55063;SDS011;40963;52.168;21.296;2023-09-07T13:06:09;13.20;;;2.70;;
55063;SDS011;40963;52.168;21.296;2023-09-07T13:08:34;2.92;;;2.40;;
55063;SDS011;40963;52.168;21.296;2023-09-07T13:11:00;5.80;;;2.63;;
55063;SDS011;40963;52.168;21.296;2023-09-07T13:13:26;6.82;;;2.60;;
55063;SDS011;40963;52.168;21.296;2023-09-07T13:15:56;2.70;;;2.50;;
55063;SDS011;40963;52.168;21.296;2023-09-07T13:18:22;7.18;;;2.45;;
55063;SDS011;40963;52.168;21.296;2023-09-07T13:20:48;2.90;;;2.55;;
55063;SDS011;40963;52.168;21.296;2023-09-07T13:23:19;3.40;;;2.70;;
55063;SDS011;40963;52.168;21.296;2023-09-07T13:25:45;14.35;;;2.88;;
55063;SDS011;40963;52.168;21.296;2023-09-07T13:28:11;12.00;;;2.60;;
55063;SDS011;40963;52.168;21.296;2023-09-07T13:30:36;2.40;;;2.20;;
55063;SDS011;40963;52.168;21.296;2023-09-07T13:33:02;3.72;;;2.33;;
55063;SDS011;40963;52.168;21.296;2023-09-07T13:35:28;5.75;;;2.60;;
55063;SDS011;40963;52.168;21.296;2023-09-07T13:37:53;3.08;;;2.63;;
55063;SDS011;40963;52.168;21.296;2023-09-07T13:40:20;3.78;;;2.67;;
55063;SDS011;40963;52.168;21.296;2023-09-07T13:42:49;4.30;;;2.50;;
55063;SDS011;40963;52.168;21.296;2023-09-07T13:45:14;2.60;;;2.40;;
55063;SDS011;40963;52.168;21.296;2023-09-07T13:47:40;5.35;;;2.47;;
55063;SDS011;40963;52.168;21.296;2023-09-07T13:50:06;3.15;;;2.63;;
55063;SDS011;40963;52.168;21.296;2023-09-07T13:52:31;4.57;;;3.03;;
55063;SDS011;40963;52.168;21.296;2023-09-07T13:54:57;6.47;;;2.70;;
55063;SDS011;40963;52.168;21.296;2023-09-07T13:57:23;6.47;;;2.70;;
55063;SDS011;40963;52.168;21.296;2023-09-07T13:59:48;4.35;;;2.72;;
55063;SDS011;40963;52.168;21.296;2023-09-07T14:02:14;3.38;;;2.65;;
55063;SDS011;40963;52.168;21.296;2023-09-07T14:04:40;11.18;;;3.33;;
55063;SDS011;40963;52.168;21.296;2023-09-07T14:07:05;5.03;;;3.08;;
55063;SDS011;40963;52.168;21.296;2023-09-07T14:09:31;3.28;;;2.65;;
55063;SDS011;40963;52.168;21.296;2023-09-07T14:11:58;4.30;;;2.67;;
55063;SDS011;40963;52.168;21.296;2023-09-07T14:14:24;4.90;;;2.95;;
55063;SDS011;40963;52.168;21.296;2023-09-07T14:16:49;4.65;;;3.10;;
55063;SDS011;40963;52.168;21.296;2023-09-07T14:19:20;3.20;;;2.90;;
55063;SDS011;40963;52.168;21.296;2023-09-07T14:21:45;6.72;;;2.95;;
55063;SDS011;40963;52.168;21.296;2023-09-07T14:24:11;2.95;;;2.67;;
55063;SDS011;40963;52.168;21.296;2023-09-07T14:26:36;10.13;;;2.90;;